IBE871 LEMD-LHBP
Flight info
| Callsign | IBE871 |
|---|---|
| Flight time | 2h 32m |
| Altitude | 36000 |
| Route | PINAR DCT SEGRE DCT YAKXU DCT RONNY DCT TOPTU DCT TOU DCT GAI DCT MEN DCT NINUN DCT LATAM DCT ETREK DCT LTP DCT SOPLO DCT OMASI DCT KINNI DCT SOSAL DCT KORED DCT BERSU N871 DITON DCT DEGES DCT GAMSA DCT TULSI DCT INPUL DCT NEMAL DCT ABLOM DCT XENAK L175 ANEXA |
| Aircraft | A320/M-SDE3FGHIRWY/LB1 |
Departure
| Time | 2026-05-07 23:31 |
|---|---|
| Airport | Adolfo Suárez Madrid–Barajas Airport (LEMD) |
Arrival
| Time | 2026-05-08 02:04 |
|---|---|
| Airport | Budapest Liszt Ferenc International Airport (LHBP) |
| Time | Latitude | Longitude | Altitude | Speed | Heading |
|---|---|---|---|---|---|
| 2026-05-07 23:19 | 40.49271 | -3.58965 | 2022 ft | 0 kts | 271° |
| 2026-05-07 23:24 | 40.49270 | -3.58953 | 2038 ft | 3 kts | 269° |
| 2026-05-07 23:25 | 40.49272 | -3.58927 | 2026 ft | 3 kts | 259° |
| 2026-05-07 23:25 | 40.49277 | -3.58902 | 2031 ft | 3 kts | 239° |
| 2026-05-07 23:25 | 40.49289 | -3.58884 | 2032 ft | 3 kts | 198° |
| 2026-05-07 23:25 | 40.49296 | -3.58882 | 2031 ft | 0 kts | 179° |
| 2026-05-07 23:28 | 40.49267 | -3.58881 | 2031 ft | 7 kts | 179° |
| 2026-05-07 23:28 | 40.49240 | -3.58836 | 2032 ft | 9 kts | 95° |
| 2026-05-07 23:28 | 40.49241 | -3.58743 | 2028 ft | 12 kts | 88° |
| 2026-05-07 23:29 | 40.49239 | -3.58625 | 2027 ft | 14 kts | 91° |
| 2026-05-07 23:29 | 40.49239 | -3.58477 | 2014 ft | 19 kts | 90° |
| 2026-05-07 23:29 | 40.49241 | -3.58278 | 2007 ft | 24 kts | 90° |
| 2026-05-07 23:29 | 40.49241 | -3.58035 | 2002 ft | 29 kts | 90° |
| 2026-05-07 23:30 | 40.49243 | -3.57756 | 1992 ft | 32 kts | 90° |
| 2026-05-07 23:30 | 40.49282 | -3.57512 | 1986 ft | 24 kts | 60° |
| 2026-05-07 23:30 | 40.49401 | -3.57450 | 1983 ft | 13 kts | 5° |
| 2026-05-07 23:30 | 40.49430 | -3.57447 | 1985 ft | 0 kts | 5° |
| 2026-05-07 23:31 | 40.49550 | -3.57451 | 1984 ft | 52 kts | 359° |
| 2026-05-07 23:31 | 40.50181 | -3.57452 | 1988 ft | 126 kts | 360° |
| 2026-05-07 23:31 | 40.51252 | -3.57452 | 2206 ft | 163 kts | 2° |
| 2026-05-07 23:31 | 40.52306 | -3.57417 | 3238 ft | 146 kts | 6° |
| 2026-05-07 23:32 | 40.53330 | -3.57266 | 3959 ft | 156 kts | 359° |
| 2026-05-07 23:32 | 40.54446 | -3.57434 | 4613 ft | 171 kts | 343° |
| 2026-05-07 23:32 | 40.55718 | -3.57733 | 5117 ft | 202 kts | 6° |
| 2026-05-07 23:32 | 40.57168 | -3.57326 | 5811 ft | 226 kts | 18° |
| 2026-05-07 23:33 | 40.58714 | -3.56623 | 6590 ft | 246 kts | 20° |
| 2026-05-07 23:33 | 40.60353 | -3.55838 | 7535 ft | 255 kts | 20° |
| 2026-05-07 23:33 | 40.62041 | -3.55063 | 8314 ft | 259 kts | 18° |
| 2026-05-07 23:33 | 40.63782 | -3.54374 | 9037 ft | 264 kts | 9° |
| 2026-05-07 23:34 | 40.65618 | -3.54102 | 9787 ft | 267 kts | 3° |
| 2026-05-07 23:34 | 40.67484 | -3.53906 | 10475 ft | 270 kts | 5° |
| 2026-05-07 23:34 | 40.69321 | -3.53315 | 11165 ft | 275 kts | 23° |
| 2026-05-07 23:34 | 40.70977 | -3.52008 | 11735 ft | 285 kts | 41° |
| 2026-05-07 23:35 | 40.72324 | -3.49970 | 11954 ft | 307 kts | 57° |
| 2026-05-07 23:35 | 40.73555 | -3.47543 | 12157 ft | 330 kts | 57° |
| 2026-05-07 23:35 | 40.74886 | -3.44939 | 12314 ft | 353 kts | 57° |
| 2026-05-07 23:35 | 40.76310 | -3.42179 | 12502 ft | 372 kts | 56° |
| 2026-05-07 23:36 | 40.77789 | -3.39329 | 13053 ft | 379 kts | 56° |
| 2026-05-07 23:36 | 40.79296 | -3.36436 | 13706 ft | 384 kts | 56° |
| 2026-05-07 23:36 | 40.80815 | -3.33519 | 14300 ft | 388 kts | 56° |
| 2026-05-07 23:36 | 40.82345 | -3.30569 | 14911 ft | 390 kts | 56° |
| 2026-05-07 23:37 | 40.83868 | -3.27625 | 15490 ft | 394 kts | 57° |
| 2026-05-07 23:37 | 40.85232 | -3.24479 | 16061 ft | 396 kts | 67° |
| 2026-05-07 23:37 | 40.86120 | -3.21039 | 16639 ft | 397 kts | 77° |
| 2026-05-07 23:37 | 40.86811 | -3.17487 | 17231 ft | 400 kts | 77° |
| 2026-05-07 23:38 | 40.87510 | -3.13916 | 17811 ft | 403 kts | 77° |
| 2026-05-07 23:38 | 40.88219 | -3.10322 | 18349 ft | 406 kts | 77° |
| 2026-05-07 23:38 | 40.88939 | -3.06694 | 18832 ft | 409 kts | 77° |
| 2026-05-07 23:38 | 40.89661 | -3.03045 | 19302 ft | 412 kts | 77° |
| 2026-05-07 23:39 | 40.90384 | -2.99375 | 19767 ft | 414 kts | 77° |
| 2026-05-07 23:39 | 40.91110 | -2.95671 | 20241 ft | 417 kts | 77° |
| 2026-05-07 23:39 | 40.91835 | -2.91948 | 20707 ft | 419 kts | 77° |
| 2026-05-07 23:39 | 40.92562 | -2.88204 | 21170 ft | 422 kts | 77° |
| 2026-05-07 23:40 | 40.93046 | -2.85706 | 21465 ft | 424 kts | 77° |
| 2026-05-07 23:40 | 40.94019 | -2.80684 | 22062 ft | 427 kts | 77° |
| 2026-05-07 23:40 | 40.94759 | -2.76869 | 22492 ft | 429 kts | 78° |
| 2026-05-07 23:40 | 40.95504 | -2.73027 | 22916 ft | 432 kts | 78° |
| 2026-05-07 23:41 | 40.96254 | -2.69165 | 23360 ft | 435 kts | 78° |
| 2026-05-07 23:41 | 40.96753 | -2.66584 | 23602 ft | 436 kts | 78° |
| 2026-05-07 23:41 | 40.97502 | -2.62688 | 24043 ft | 437 kts | 78° |
| 2026-05-07 23:41 | 40.98250 | -2.58782 | 24409 ft | 439 kts | 78° |
| 2026-05-07 23:42 | 40.99001 | -2.54857 | 24758 ft | 441 kts | 78° |
| 2026-05-07 23:42 | 40.99753 | -2.50909 | 25093 ft | 444 kts | 78° |
| 2026-05-07 23:42 | 41.00510 | -2.46928 | 25426 ft | 447 kts | 78° |
| 2026-05-07 23:42 | 41.01422 | -2.42977 | 25737 ft | 452 kts | 71° |
| 2026-05-07 23:43 | 41.02807 | -2.39215 | 26046 ft | 458 kts | 61° |
| 2026-05-07 23:43 | 41.04659 | -2.35758 | 26359 ft | 463 kts | 51° |
| 2026-05-07 23:43 | 41.06935 | -2.32710 | 26651 ft | 468 kts | 41° |
| 2026-05-07 23:43 | 41.09488 | -2.30006 | 26944 ft | 470 kts | 39° |
| 2026-05-07 23:44 | 41.12062 | -2.27295 | 27181 ft | 474 kts | 39° |
| 2026-05-07 23:44 | 41.14649 | -2.24554 | 27396 ft | 478 kts | 39° |
| 2026-05-07 23:44 | 41.17252 | -2.21781 | 27656 ft | 481 kts | 40° |
| 2026-05-07 23:44 | 41.19833 | -2.19021 | 27937 ft | 484 kts | 40° |
| 2026-05-07 23:45 | 41.22463 | -2.16208 | 28203 ft | 486 kts | 40° |
| 2026-05-07 23:45 | 41.25101 | -2.13386 | 28472 ft | 488 kts | 39° |
| 2026-05-07 23:45 | 41.27758 | -2.10546 | 28738 ft | 491 kts | 39° |
| 2026-05-07 23:45 | 41.30425 | -2.07694 | 29081 ft | 491 kts | 39° |
| 2026-05-07 23:46 | 41.33085 | -2.04848 | 29474 ft | 491 kts | 39° |
| 2026-05-07 23:46 | 41.35735 | -2.02012 | 30020 ft | 486 kts | 39° |
| 2026-05-07 23:46 | 41.38360 | -1.99201 | 30469 ft | 483 kts | 39° |
| 2026-05-07 23:46 | 41.40971 | -1.96399 | 30840 ft | 481 kts | 39° |
| 2026-05-07 23:47 | 41.43574 | -1.93602 | 31177 ft | 480 kts | 39° |
| 2026-05-07 23:47 | 41.46175 | -1.90799 | 31515 ft | 479 kts | 40° |
| 2026-05-07 23:47 | 41.48776 | -1.87992 | 31702 ft | 483 kts | 40° |
| 2026-05-07 23:47 | 41.51389 | -1.85168 | 31919 ft | 485 kts | 40° |
| 2026-05-07 23:48 | 41.54015 | -1.82327 | 32212 ft | 485 kts | 40° |
| 2026-05-07 23:48 | 41.56604 | -1.79524 | 32552 ft | 484 kts | 40° |
| 2026-05-07 23:48 | 41.59214 | -1.76694 | 32886 ft | 483 kts | 40° |
| 2026-05-07 23:48 | 41.61821 | -1.73871 | 33205 ft | 483 kts | 40° |
| 2026-05-07 23:49 | 41.64433 | -1.71042 | 33510 ft | 482 kts | 40° |
| 2026-05-07 23:49 | 41.67042 | -1.68215 | 33818 ft | 482 kts | 40° |
| 2026-05-07 23:49 | 41.69647 | -1.65387 | 34079 ft | 482 kts | 40° |
| 2026-05-07 23:49 | 41.72248 | -1.62559 | 34326 ft | 482 kts | 40° |
| 2026-05-07 23:50 | 41.74851 | -1.59721 | 34561 ft | 482 kts | 40° |
| 2026-05-07 23:50 | 41.77453 | -1.56880 | 34803 ft | 483 kts | 40° |
| 2026-05-07 23:50 | 41.80056 | -1.54039 | 35039 ft | 483 kts | 40° |
| 2026-05-07 23:50 | 41.82663 | -1.51195 | 35231 ft | 484 kts | 40° |
| 2026-05-07 23:51 | 41.85287 | -1.48324 | 35353 ft | 487 kts | 40° |
| 2026-05-07 23:51 | 41.87916 | -1.45440 | 35530 ft | 488 kts | 40° |
| 2026-05-07 23:51 | 41.90545 | -1.42555 | 35766 ft | 489 kts | 40° |
| 2026-05-07 23:51 | 41.93181 | -1.39661 | 35907 ft | 490 kts | 40° |
| 2026-05-07 23:52 | 41.98425 | -1.33899 | 35937 ft | 490 kts | 40° |
| 2026-05-07 23:52 | 42.03704 | -1.28086 | 35929 ft | 490 kts | 40° |
| 2026-05-07 23:53 | 42.08982 | -1.22259 | 35928 ft | 491 kts | 40° |
| 2026-05-07 23:53 | 42.14262 | -1.16416 | 35934 ft | 491 kts | 40° |
| 2026-05-07 23:54 | 42.19538 | -1.10565 | 35912 ft | 491 kts | 39° |
| 2026-05-07 23:54 | 42.24823 | -1.04693 | 35933 ft | 491 kts | 39° |
| 2026-05-07 23:55 | 42.30104 | -0.98820 | 35935 ft | 491 kts | 39° |
| 2026-05-07 23:55 | 42.35339 | -0.92974 | 35934 ft | 491 kts | 40° |
| 2026-05-07 23:56 | 42.40599 | -0.87078 | 35951 ft | 491 kts | 40° |
| 2026-05-07 23:56 | 42.45254 | -0.80389 | 35961 ft | 488 kts | 53° |
| 2026-05-07 23:57 | 42.49385 | -0.73114 | 35951 ft | 487 kts | 53° |
| 2026-05-07 23:57 | 42.53519 | -0.65831 | 35958 ft | 487 kts | 53° |
| 2026-05-07 23:58 | 42.57653 | -0.58540 | 35963 ft | 487 kts | 53° |
| 2026-05-07 23:58 | 42.61782 | -0.51244 | 35971 ft | 487 kts | 54° |
| 2026-05-07 23:59 | 42.65897 | -0.43940 | 35975 ft | 486 kts | 54° |
| 2026-05-07 23:59 | 42.70003 | -0.36640 | 35969 ft | 485 kts | 54° |
| 2026-05-08 00:00 | 42.74098 | -0.29335 | 35973 ft | 485 kts | 54° |
| 2026-05-08 00:00 | 42.78160 | -0.22076 | 35970 ft | 485 kts | 54° |
| 2026-05-08 00:01 | 42.82293 | -0.14808 | 35971 ft | 485 kts | 52° |
| 2026-05-08 00:01 | 42.86594 | -0.07707 | 35964 ft | 485 kts | 51° |
| 2026-05-08 00:02 | 42.90928 | -0.00642 | 35963 ft | 486 kts | 51° |
| 2026-05-08 00:02 | 42.95224 | 0.06488 | 35947 ft | 486 kts | 52° |
| 2026-05-08 00:03 | 42.99459 | 0.13609 | 35949 ft | 486 kts | 52° |
| 2026-05-08 00:03 | 43.03721 | 0.20780 | 35980 ft | 486 kts | 52° |
| 2026-05-08 00:04 | 43.07989 | 0.27964 | 35968 ft | 486 kts | 52° |
| 2026-05-08 00:04 | 43.12245 | 0.35137 | 35970 ft | 485 kts | 52° |
| 2026-05-08 00:05 | 43.16501 | 0.42334 | 35953 ft | 486 kts | 52° |
| 2026-05-08 00:05 | 43.20731 | 0.49497 | 35954 ft | 486 kts | 52° |
| 2026-05-08 00:06 | 43.24990 | 0.56728 | 35976 ft | 486 kts | 52° |
| 2026-05-08 00:06 | 43.29233 | 0.63958 | 35984 ft | 486 kts | 52° |
| 2026-05-08 00:07 | 43.33471 | 0.71201 | 35989 ft | 486 kts | 52° |
| 2026-05-08 00:07 | 43.37695 | 0.78437 | 35977 ft | 485 kts | 52° |
| 2026-05-08 00:08 | 43.41923 | 0.85685 | 35969 ft | 485 kts | 52° |
| 2026-05-08 00:08 | 43.46122 | 0.92905 | 35990 ft | 485 kts | 52° |
| 2026-05-08 00:09 | 43.50337 | 1.00163 | 35992 ft | 485 kts | 52° |
| 2026-05-08 00:09 | 43.54542 | 1.07427 | 35993 ft | 484 kts | 52° |
| 2026-05-08 00:10 | 43.58734 | 1.14706 | 35986 ft | 484 kts | 52° |
| 2026-05-08 00:10 | 43.62900 | 1.21942 | 35979 ft | 484 kts | 52° |
| 2026-05-08 00:11 | 43.67080 | 1.29216 | 35988 ft | 484 kts | 52° |
| 2026-05-08 00:11 | 43.71198 | 1.36565 | 35979 ft | 483 kts | 54° |
| 2026-05-08 00:12 | 43.75161 | 1.44064 | 35985 ft | 483 kts | 55° |
| 2026-05-08 00:12 | 43.79003 | 1.51424 | 35983 ft | 483 kts | 54° |
| 2026-05-08 00:13 | 43.83011 | 1.58984 | 36001 ft | 484 kts | 54° |
| 2026-05-08 00:13 | 43.86983 | 1.66445 | 35999 ft | 484 kts | 54° |
| 2026-05-08 00:14 | 43.90960 | 1.73956 | 35999 ft | 483 kts | 54° |
| 2026-05-08 00:14 | 43.94933 | 1.81510 | 35998 ft | 483 kts | 54° |
| 2026-05-08 00:15 | 43.98830 | 1.89102 | 35998 ft | 483 kts | 56° |
| 2026-05-08 00:15 | 44.02633 | 1.96808 | 36005 ft | 483 kts | 56° |
| 2026-05-08 00:16 | 44.06426 | 2.04528 | 36008 ft | 483 kts | 56° |
| 2026-05-08 00:16 | 44.10232 | 2.12220 | 36009 ft | 483 kts | 56° |
| 2026-05-08 00:17 | 44.14035 | 2.19860 | 36001 ft | 483 kts | 56° |
| 2026-05-08 00:17 | 44.17840 | 2.27566 | 35997 ft | 482 kts | 56° |
| 2026-05-08 00:18 | 44.21632 | 2.35289 | 36009 ft | 483 kts | 56° |
| 2026-05-08 00:18 | 44.25420 | 2.43021 | 36007 ft | 483 kts | 56° |
| 2026-05-08 00:19 | 44.29209 | 2.50758 | 35997 ft | 482 kts | 56° |
| 2026-05-08 00:19 | 44.32990 | 2.58501 | 36002 ft | 482 kts | 56° |
| 2026-05-08 00:20 | 44.36758 | 2.66260 | 35999 ft | 482 kts | 56° |
| 2026-05-08 00:20 | 44.40524 | 2.74027 | 35993 ft | 483 kts | 56° |
| 2026-05-08 00:21 | 44.44281 | 2.81765 | 35985 ft | 483 kts | 56° |
| 2026-05-08 00:21 | 44.48047 | 2.89557 | 35982 ft | 483 kts | 56° |
| 2026-05-08 00:22 | 44.51801 | 2.97375 | 35981 ft | 483 kts | 56° |
| 2026-05-08 00:22 | 44.55553 | 3.05200 | 35978 ft | 483 kts | 56° |
| 2026-05-08 00:23 | 44.59302 | 3.13031 | 35977 ft | 484 kts | 56° |
| 2026-05-08 00:23 | 44.62940 | 3.20972 | 35967 ft | 484 kts | 60° |
| 2026-05-08 00:24 | 44.66237 | 3.29228 | 35971 ft | 484 kts | 62° |
| 2026-05-08 00:24 | 44.69402 | 3.37520 | 35972 ft | 484 kts | 62° |
| 2026-05-08 00:25 | 44.72649 | 3.45812 | 35972 ft | 484 kts | 61° |
| 2026-05-08 00:25 | 44.75961 | 3.54083 | 35970 ft | 484 kts | 61° |
| 2026-05-08 00:26 | 44.78711 | 3.60944 | 35969 ft | 484 kts | 61° |
| 2026-05-08 00:26 | 44.82534 | 3.70579 | 35975 ft | 484 kts | 61° |
| 2026-05-08 00:27 | 44.85810 | 3.78882 | 35972 ft | 484 kts | 61° |
| 2026-05-08 00:27 | 44.88525 | 3.85790 | 35962 ft | 484 kts | 62° |
| 2026-05-08 00:28 | 44.91786 | 3.94119 | 35965 ft | 485 kts | 62° |
| 2026-05-08 00:28 | 44.95052 | 4.02458 | 35976 ft | 485 kts | 61° |
| 2026-05-08 00:29 | 44.98313 | 4.10812 | 35981 ft | 485 kts | 62° |
| 2026-05-08 00:29 | 45.01560 | 4.19167 | 35982 ft | 485 kts | 62° |
| 2026-05-08 00:30 | 45.04801 | 4.27548 | 35972 ft | 486 kts | 62° |
| 2026-05-08 00:30 | 45.08022 | 4.35891 | 35976 ft | 486 kts | 62° |
| 2026-05-08 00:31 | 45.11271 | 4.44305 | 35987 ft | 486 kts | 62° |
| 2026-05-08 00:31 | 45.14501 | 4.52719 | 35993 ft | 486 kts | 62° |
| 2026-05-08 00:32 | 45.17734 | 4.61170 | 35991 ft | 487 kts | 62° |
| 2026-05-08 00:32 | 45.20962 | 4.69609 | 35977 ft | 487 kts | 61° |
| 2026-05-08 00:33 | 45.24191 | 4.78077 | 35983 ft | 487 kts | 61° |
| 2026-05-08 00:33 | 45.27401 | 4.86548 | 35994 ft | 488 kts | 62° |
| 2026-05-08 00:34 | 45.30591 | 4.95002 | 36005 ft | 488 kts | 61° |
| 2026-05-08 00:34 | 45.33802 | 5.03495 | 35997 ft | 488 kts | 61° |
| 2026-05-08 00:35 | 45.37015 | 5.12012 | 35993 ft | 488 kts | 61° |
| 2026-05-08 00:35 | 45.40213 | 5.20546 | 35994 ft | 489 kts | 62° |
| 2026-05-08 00:36 | 45.43399 | 5.29097 | 35997 ft | 489 kts | 62° |
| 2026-05-08 00:36 | 45.46581 | 5.37655 | 36011 ft | 489 kts | 61° |
| 2026-05-08 00:37 | 45.50408 | 5.45599 | 35998 ft | 486 kts | 45° |
| 2026-05-08 00:38 | 45.57841 | 5.55277 | 35989 ft | 484 kts | 39° |
| 2026-05-08 00:38 | 45.62865 | 5.61704 | 35989 ft | 485 kts | 39° |
| 2026-05-08 00:39 | 45.67894 | 5.68159 | 35983 ft | 485 kts | 39° |
| 2026-05-08 00:39 | 45.72920 | 5.74625 | 36003 ft | 486 kts | 39° |
| 2026-05-08 00:40 | 45.77957 | 5.81096 | 36007 ft | 486 kts | 39° |
| 2026-05-08 00:40 | 45.82989 | 5.87574 | 36024 ft | 486 kts | 39° |
| 2026-05-08 00:41 | 45.88019 | 5.94063 | 36016 ft | 485 kts | 39° |
| 2026-05-08 00:41 | 45.93039 | 6.00552 | 36020 ft | 485 kts | 39° |
| 2026-05-08 00:42 | 45.98058 | 6.07048 | 36014 ft | 485 kts | 39° |
| 2026-05-08 00:42 | 46.03033 | 6.13515 | 36030 ft | 485 kts | 39° |
| 2026-05-08 00:43 | 46.08057 | 6.20069 | 36024 ft | 484 kts | 39° |
| 2026-05-08 00:43 | 46.12965 | 6.26716 | 36019 ft | 484 kts | 41° |
| 2026-05-08 00:44 | 46.17705 | 6.33542 | 36011 ft | 484 kts | 43° |
| 2026-05-08 00:44 | 46.22457 | 6.40444 | 36017 ft | 484 kts | 42° |
| 2026-05-08 00:45 | 46.27236 | 6.47299 | 36014 ft | 484 kts | 42° |
| 2026-05-08 00:45 | 46.32042 | 6.54142 | 36011 ft | 483 kts | 42° |
| 2026-05-08 00:46 | 46.36794 | 6.60953 | 36012 ft | 484 kts | 42° |
| 2026-05-08 00:46 | 46.41568 | 6.67838 | 36027 ft | 483 kts | 42° |
| 2026-05-08 00:47 | 46.46330 | 6.74706 | 36029 ft | 483 kts | 42° |
| 2026-05-08 00:47 | 46.51084 | 6.81575 | 36027 ft | 482 kts | 42° |
| 2026-05-08 00:48 | 46.55813 | 6.88509 | 36014 ft | 483 kts | 46° |
| 2026-05-08 00:48 | 46.60065 | 6.96098 | 36014 ft | 484 kts | 49° |
| 2026-05-08 00:49 | 46.64275 | 7.03673 | 36021 ft | 484 kts | 49° |
| 2026-05-08 00:49 | 46.68517 | 7.11316 | 36021 ft | 484 kts | 49° |
| 2026-05-08 00:50 | 46.72739 | 7.18970 | 36021 ft | 485 kts | 49° |
| 2026-05-08 00:50 | 46.76961 | 7.26636 | 36026 ft | 484 kts | 49° |
| 2026-05-08 00:51 | 46.81182 | 7.34316 | 36020 ft | 484 kts | 49° |
| 2026-05-08 00:51 | 46.85359 | 7.41954 | 36003 ft | 484 kts | 49° |
| 2026-05-08 00:52 | 46.89553 | 7.49655 | 35999 ft | 484 kts | 49° |
| 2026-05-08 00:52 | 46.93740 | 7.57369 | 36053 ft | 484 kts | 49° |
| 2026-05-08 00:53 | 46.97925 | 7.65083 | 36046 ft | 483 kts | 49° |
| 2026-05-08 00:53 | 47.02100 | 7.72801 | 36039 ft | 483 kts | 49° |
| 2026-05-08 00:54 | 47.06263 | 7.80532 | 36040 ft | 482 kts | 49° |
| 2026-05-08 00:54 | 47.10390 | 7.88219 | 36040 ft | 482 kts | 49° |
| 2026-05-08 00:55 | 47.14420 | 7.96100 | 36052 ft | 483 kts | 56° |
| 2026-05-08 00:55 | 47.17991 | 8.04481 | 36032 ft | 483 kts | 56° |
| 2026-05-08 00:56 | 47.21558 | 8.12856 | 36029 ft | 482 kts | 56° |
| 2026-05-08 00:56 | 47.25095 | 8.21181 | 36026 ft | 482 kts | 56° |
| 2026-05-08 00:57 | 47.28610 | 8.29596 | 36023 ft | 483 kts | 60° |
| 2026-05-08 00:57 | 47.30948 | 8.38862 | 36029 ft | 484 kts | 78° |
| 2026-05-08 00:58 | 47.32210 | 8.48622 | 36031 ft | 484 kts | 79° |
| 2026-05-08 00:58 | 47.33473 | 8.58367 | 36030 ft | 484 kts | 79° |
| 2026-05-08 00:59 | 47.34724 | 8.68051 | 36024 ft | 484 kts | 79° |
| 2026-05-08 00:59 | 47.35971 | 8.77825 | 36020 ft | 484 kts | 79° |
| 2026-05-08 01:00 | 47.37208 | 8.87583 | 36022 ft | 484 kts | 79° |
| 2026-05-08 01:00 | 47.38429 | 8.97358 | 36021 ft | 484 kts | 79° |
| 2026-05-08 01:01 | 47.39643 | 9.07134 | 36022 ft | 484 kts | 79° |
| 2026-05-08 01:01 | 47.40844 | 9.16865 | 36022 ft | 484 kts | 80° |
| 2026-05-08 01:02 | 47.41217 | 9.26774 | 36014 ft | 483 kts | 91° |
| 2026-05-08 01:02 | 47.41127 | 9.36712 | 36013 ft | 484 kts | 91° |
| 2026-05-08 01:03 | 47.41038 | 9.46643 | 36017 ft | 484 kts | 91° |
| 2026-05-08 01:03 | 47.40945 | 9.56580 | 36028 ft | 484 kts | 91° |
| 2026-05-08 01:04 | 47.41111 | 9.66501 | 36032 ft | 483 kts | 82° |
| 2026-05-08 01:04 | 47.42467 | 9.76223 | 36030 ft | 483 kts | 77° |
| 2026-05-08 01:05 | 47.43887 | 9.85875 | 36026 ft | 483 kts | 77° |
| 2026-05-08 01:05 | 47.45294 | 9.95578 | 36026 ft | 483 kts | 78° |
| 2026-05-08 01:06 | 47.46686 | 10.05300 | 36021 ft | 483 kts | 78° |
| 2026-05-08 01:06 | 47.48053 | 10.14856 | 36021 ft | 483 kts | 78° |
| 2026-05-08 01:07 | 47.49437 | 10.24590 | 36018 ft | 483 kts | 78° |
| 2026-05-08 01:07 | 47.50811 | 10.34326 | 36019 ft | 484 kts | 78° |
| 2026-05-08 01:08 | 47.52177 | 10.44067 | 36014 ft | 484 kts | 78° |
| 2026-05-08 01:08 | 47.53532 | 10.53818 | 36022 ft | 484 kts | 78° |
| 2026-05-08 01:09 | 47.54869 | 10.63491 | 36022 ft | 483 kts | 78° |
| 2026-05-08 01:09 | 47.56213 | 10.73251 | 36023 ft | 483 kts | 78° |
| 2026-05-08 01:10 | 47.57548 | 10.83001 | 36016 ft | 483 kts | 78° |
| 2026-05-08 01:10 | 47.58869 | 10.92754 | 36014 ft | 482 kts | 79° |
| 2026-05-08 01:11 | 47.60185 | 11.02510 | 35996 ft | 483 kts | 79° |
| 2026-05-08 01:11 | 47.61275 | 11.10628 | 36000 ft | 484 kts | 79° |
| 2026-05-08 01:12 | 47.62579 | 11.20411 | 35999 ft | 483 kts | 79° |
| 2026-05-08 01:12 | 47.63869 | 11.30195 | 35992 ft | 484 kts | 79° |
| 2026-05-08 01:13 | 47.65158 | 11.40011 | 35989 ft | 484 kts | 79° |
| 2026-05-08 01:13 | 47.66436 | 11.49821 | 36007 ft | 484 kts | 79° |
| 2026-05-08 01:14 | 47.67707 | 11.59635 | 36007 ft | 484 kts | 79° |
| 2026-05-08 01:14 | 47.68958 | 11.69390 | 36004 ft | 483 kts | 80° |
| 2026-05-08 01:15 | 47.70208 | 11.79196 | 36010 ft | 483 kts | 79° |
| 2026-05-08 01:15 | 47.71584 | 11.88978 | 35999 ft | 483 kts | 78° |
| 2026-05-08 01:16 | 47.73095 | 11.98723 | 35999 ft | 484 kts | 77° |
| 2026-05-08 01:16 | 47.74587 | 12.08484 | 36002 ft | 484 kts | 78° |
| 2026-05-08 01:17 | 47.76022 | 12.18263 | 36007 ft | 484 kts | 78° |
| 2026-05-08 01:17 | 47.77438 | 12.28061 | 36011 ft | 484 kts | 78° |
| 2026-05-08 01:18 | 47.78840 | 12.37779 | 36025 ft | 484 kts | 78° |
| 2026-05-08 01:18 | 47.80249 | 12.47562 | 36026 ft | 484 kts | 78° |
| 2026-05-08 01:19 | 47.81646 | 12.57345 | 36026 ft | 483 kts | 79° |
| 2026-05-08 01:19 | 47.83040 | 12.67133 | 36025 ft | 483 kts | 79° |
| 2026-05-08 01:20 | 47.84402 | 12.76933 | 36014 ft | 483 kts | 80° |
| 2026-05-08 01:20 | 47.85496 | 12.86807 | 36016 ft | 483 kts | 83° |
| 2026-05-08 01:21 | 47.86435 | 12.96700 | 36016 ft | 483 kts | 83° |
| 2026-05-08 01:21 | 47.87403 | 13.06607 | 36018 ft | 483 kts | 82° |
| 2026-05-08 01:22 | 47.88436 | 13.16498 | 36018 ft | 483 kts | 82° |
| 2026-05-08 01:22 | 47.89460 | 13.26332 | 36011 ft | 483 kts | 83° |
| 2026-05-08 01:23 | 47.90466 | 13.36237 | 36014 ft | 483 kts | 83° |
| 2026-05-08 01:23 | 47.91452 | 13.46161 | 36015 ft | 482 kts | 83° |
| 2026-05-08 01:24 | 47.92294 | 13.56072 | 36007 ft | 482 kts | 86° |
| 2026-05-08 01:24 | 47.92828 | 13.65972 | 36009 ft | 481 kts | 88° |
| 2026-05-08 01:25 | 47.93287 | 13.75936 | 35992 ft | 482 kts | 88° |
| 2026-05-08 01:25 | 47.93800 | 13.85901 | 35989 ft | 482 kts | 87° |
| 2026-05-08 01:26 | 47.94353 | 13.95877 | 35993 ft | 483 kts | 87° |
| 2026-05-08 01:26 | 47.94900 | 14.05867 | 35993 ft | 483 kts | 87° |
| 2026-05-08 01:27 | 47.95423 | 14.15859 | 35974 ft | 483 kts | 88° |
| 2026-05-08 01:27 | 47.95920 | 14.25864 | 35990 ft | 483 kts | 88° |
| 2026-05-08 01:28 | 47.96414 | 14.35808 | 35995 ft | 483 kts | 88° |
| 2026-05-08 01:28 | 47.96914 | 14.45826 | 35986 ft | 484 kts | 88° |
| 2026-05-08 01:29 | 47.97398 | 14.55841 | 35988 ft | 484 kts | 88° |
| 2026-05-08 01:29 | 47.97872 | 14.65864 | 35978 ft | 484 kts | 89° |
| 2026-05-08 01:30 | 47.98342 | 14.75877 | 35982 ft | 483 kts | 89° |
| 2026-05-08 01:30 | 47.98807 | 14.85896 | 35980 ft | 483 kts | 89° |
| 2026-05-08 01:31 | 47.99262 | 14.95916 | 35981 ft | 483 kts | 89° |
| 2026-05-08 01:31 | 47.99704 | 15.05876 | 35958 ft | 483 kts | 90° |
| 2026-05-08 01:32 | 48.00136 | 15.15925 | 35957 ft | 484 kts | 90° |
| 2026-05-08 01:32 | 48.00558 | 15.25959 | 35962 ft | 485 kts | 90° |
| 2026-05-08 01:33 | 48.00973 | 15.36024 | 35965 ft | 485 kts | 90° |
| 2026-05-08 01:33 | 48.01383 | 15.46099 | 35971 ft | 486 kts | 90° |
| 2026-05-08 01:34 | 48.01785 | 15.56132 | 35963 ft | 487 kts | 90° |
| 2026-05-08 01:34 | 48.02183 | 15.66226 | 35965 ft | 487 kts | 90° |
| 2026-05-08 01:35 | 48.02564 | 15.76324 | 35973 ft | 487 kts | 90° |
| 2026-05-08 01:35 | 48.02931 | 15.86423 | 35972 ft | 487 kts | 90° |
| 2026-05-08 01:36 | 48.03298 | 15.96531 | 35956 ft | 486 kts | 91° |
| 2026-05-08 01:36 | 48.03659 | 16.06621 | 35974 ft | 486 kts | 91° |
| 2026-05-08 01:37 | 48.04005 | 16.16633 | 35981 ft | 485 kts | 91° |
| 2026-05-08 01:37 | 48.04341 | 16.26714 | 35979 ft | 485 kts | 91° |
| 2026-05-08 01:38 | 48.04668 | 16.36772 | 35977 ft | 485 kts | 91° |
| 2026-05-08 01:38 | 48.04986 | 16.46833 | 35962 ft | 484 kts | 92° |
| 2026-05-08 01:39 | 48.05301 | 16.56891 | 35972 ft | 484 kts | 92° |
| 2026-05-08 01:39 | 48.05606 | 16.66884 | 35977 ft | 483 kts | 92° |
| 2026-05-08 01:40 | 48.05894 | 16.76912 | 35978 ft | 483 kts | 92° |
| 2026-05-08 01:40 | 48.06180 | 16.86943 | 35979 ft | 483 kts | 92° |
| 2026-05-08 01:41 | 48.06456 | 16.96978 | 35983 ft | 482 kts | 92° |
| 2026-05-08 01:41 | 48.06849 | 17.06988 | 35983 ft | 485 kts | 85° |
| 2026-05-08 01:42 | 48.08692 | 17.16681 | 35981 ft | 491 kts | 72° |
| 2026-05-08 01:42 | 48.10521 | 17.26433 | 35975 ft | 483 kts | 88° |
| 2026-05-08 01:43 | 48.10341 | 17.36321 | 35947 ft | 470 kts | 107° |
| 2026-05-08 01:43 | 48.08544 | 17.45611 | 35954 ft | 463 kts | 114° |
| 2026-05-08 01:44 | 48.06545 | 17.54763 | 35963 ft | 464 kts | 114° |
| 2026-05-08 01:44 | 48.04532 | 17.63921 | 35647 ft | 464 kts | 114° |
| 2026-05-08 01:44 | 48.03537 | 17.68457 | 35429 ft | 453 kts | 115° |
| 2026-05-08 01:45 | 48.02555 | 17.72929 | 34686 ft | 454 kts | 115° |
| 2026-05-08 01:45 | 48.01551 | 17.77437 | 33770 ft | 460 kts | 116° |
| 2026-05-08 01:45 | 48.00526 | 17.81996 | 32728 ft | 465 kts | 116° |
| 2026-05-08 01:45 | 47.99504 | 17.86547 | 31725 ft | 470 kts | 116° |
| 2026-05-08 01:46 | 47.98462 | 17.91193 | 30748 ft | 474 kts | 115° |
| 2026-05-08 01:46 | 47.97399 | 17.95943 | 29509 ft | 481 kts | 115° |
| 2026-05-08 01:46 | 47.96347 | 18.00643 | 28405 ft | 483 kts | 115° |
| 2026-05-08 01:46 | 47.95299 | 18.05348 | 27829 ft | 474 kts | 115° |
| 2026-05-08 01:47 | 47.94263 | 18.09997 | 27050 ft | 469 kts | 114° |
| 2026-05-08 01:47 | 47.93237 | 18.14580 | 26365 ft | 463 kts | 114° |
| 2026-05-08 01:47 | 47.92220 | 18.19105 | 25650 ft | 458 kts | 114° |
| 2026-05-08 01:48 | 47.90204 | 18.27999 | 24289 ft | 448 kts | 114° |
| 2026-05-08 01:48 | 47.89205 | 18.32379 | 23615 ft | 444 kts | 114° |
| 2026-05-08 01:48 | 47.88212 | 18.36711 | 22885 ft | 440 kts | 114° |
| 2026-05-08 01:48 | 47.87229 | 18.40990 | 22268 ft | 433 kts | 115° |
| 2026-05-08 01:49 | 47.85986 | 18.45005 | 21671 ft | 420 kts | 126° |
| 2026-05-08 01:49 | 47.84319 | 18.48506 | 21110 ft | 408 kts | 135° |
| 2026-05-08 01:49 | 47.82330 | 18.51433 | 20597 ft | 397 kts | 145° |
| 2026-05-08 01:49 | 47.80104 | 18.53760 | 20095 ft | 387 kts | 152° |
| 2026-05-08 01:50 | 47.77846 | 18.55899 | 19606 ft | 383 kts | 152° |
| 2026-05-08 01:50 | 47.75645 | 18.57996 | 19146 ft | 378 kts | 152° |
| 2026-05-08 01:50 | 47.73449 | 18.60094 | 18680 ft | 373 kts | 151° |
| 2026-05-08 01:50 | 47.71278 | 18.62169 | 18219 ft | 369 kts | 151° |
| 2026-05-08 01:51 | 47.69177 | 18.64357 | 17723 ft | 369 kts | 144° |
| 2026-05-08 01:51 | 47.67346 | 18.67017 | 17256 ft | 369 kts | 136° |
| 2026-05-08 01:51 | 47.65648 | 18.69859 | 16777 ft | 365 kts | 136° |
| 2026-05-08 01:51 | 47.63955 | 18.72656 | 16287 ft | 363 kts | 136° |
| 2026-05-08 01:52 | 47.62267 | 18.75422 | 15790 ft | 361 kts | 136° |
| 2026-05-08 01:52 | 47.60577 | 18.78182 | 15306 ft | 360 kts | 136° |
| 2026-05-08 01:52 | 47.58901 | 18.80921 | 14815 ft | 359 kts | 136° |
| 2026-05-08 01:52 | 47.57227 | 18.83658 | 14301 ft | 358 kts | 136° |
| 2026-05-08 01:53 | 47.55557 | 18.86385 | 13789 ft | 358 kts | 136° |
| 2026-05-08 01:53 | 47.53881 | 18.89122 | 13216 ft | 357 kts | 136° |
| 2026-05-08 01:53 | 47.52219 | 18.91835 | 12694 ft | 355 kts | 136° |
| 2026-05-08 01:53 | 47.50565 | 18.94539 | 12148 ft | 353 kts | 136° |
| 2026-05-08 01:54 | 47.48923 | 18.97225 | 11598 ft | 351 kts | 135° |
| 2026-05-08 01:54 | 47.47282 | 18.99901 | 11051 ft | 350 kts | 136° |
| 2026-05-08 01:54 | 47.45655 | 19.02544 | 10716 ft | 342 kts | 136° |
| 2026-05-08 01:54 | 47.44091 | 19.05091 | 10649 ft | 327 kts | 136° |
| 2026-05-08 01:55 | 47.42591 | 19.07538 | 10529 ft | 314 kts | 136° |
| 2026-05-08 01:55 | 47.41630 | 19.09107 | 10443 ft | 307 kts | 136° |
| 2026-05-08 01:55 | 47.39775 | 19.12127 | 10269 ft | 293 kts | 136° |
| 2026-05-08 01:55 | 47.38862 | 19.13609 | 10184 ft | 286 kts | 136° |
| 2026-05-08 01:56 | 47.37547 | 19.15739 | 10059 ft | 276 kts | 136° |
| 2026-05-08 01:56 | 47.36272 | 19.17796 | 9832 ft | 270 kts | 137° |
| 2026-05-08 01:56 | 47.34985 | 19.19858 | 9302 ft | 275 kts | 137° |
| 2026-05-08 01:56 | 47.33685 | 19.21939 | 8854 ft | 277 kts | 136° |
| 2026-05-08 01:57 | 47.32382 | 19.24033 | 8421 ft | 278 kts | 136° |
| 2026-05-08 01:57 | 47.31075 | 19.26138 | 7984 ft | 279 kts | 136° |
| 2026-05-08 01:57 | 47.29760 | 19.28257 | 7519 ft | 281 kts | 136° |
| 2026-05-08 01:57 | 47.28456 | 19.30359 | 7080 ft | 282 kts | 136° |
| 2026-05-08 01:58 | 47.27131 | 19.32502 | 6511 ft | 286 kts | 136° |
| 2026-05-08 01:58 | 47.25774 | 19.34696 | 5988 ft | 289 kts | 135° |
| 2026-05-08 01:58 | 47.24448 | 19.36836 | 5877 ft | 276 kts | 135° |
| 2026-05-08 01:58 | 47.23406 | 19.39132 | 5788 ft | 266 kts | 115° |
| 2026-05-08 01:59 | 47.23029 | 19.41729 | 5701 ft | 253 kts | 92° |
| 2026-05-08 01:59 | 47.23331 | 19.44240 | 5626 ft | 250 kts | 69° |
| 2026-05-08 01:59 | 47.24241 | 19.46414 | 5548 ft | 251 kts | 46° |
| 2026-05-08 01:59 | 47.25630 | 19.47936 | 5475 ft | 249 kts | 23° |
| 2026-05-08 02:00 | 47.27234 | 19.48813 | 5399 ft | 249 kts | 16° |
| 2026-05-08 02:00 | 47.28922 | 19.49142 | 5323 ft | 243 kts | 348° |
| 2026-05-08 02:00 | 47.30456 | 19.48275 | 5250 ft | 235 kts | 318° |
| 2026-05-08 02:00 | 47.31603 | 19.46606 | 5164 ft | 231 kts | 308° |
| 2026-05-08 02:01 | 47.32660 | 19.44894 | 4981 ft | 218 kts | 308° |
| 2026-05-08 02:01 | 47.33675 | 19.43255 | 4721 ft | 216 kts | 309° |
| 2026-05-08 02:01 | 47.34677 | 19.41645 | 4256 ft | 213 kts | 309° |
| 2026-05-08 02:01 | 47.35664 | 19.40059 | 3636 ft | 207 kts | 310° |
| 2026-05-08 02:02 | 47.36616 | 19.38530 | 3109 ft | 199 kts | 310° |
| 2026-05-08 02:02 | 47.37537 | 19.37049 | 2582 ft | 194 kts | 310° |
| 2026-05-08 02:02 | 47.38437 | 19.35602 | 2069 ft | 190 kts | 310° |
| 2026-05-08 02:02 | 47.39322 | 19.34176 | 1535 ft | 188 kts | 309° |
| 2026-05-08 02:03 | 47.40187 | 19.32783 | 1082 ft | 183 kts | 310° |
| 2026-05-08 02:03 | 47.41009 | 19.31461 | 836 ft | 165 kts | 309° |
| 2026-05-08 02:03 | 47.41749 | 19.30247 | 639 ft | 150 kts | 309° |
| 2026-05-08 02:03 | 47.42447 | 19.29148 | 453 ft | 146 kts | 309° |
| 2026-05-08 02:04 | 47.43021 | 19.28195 | 459 ft | 99 kts | 311° |
| 2026-05-08 02:04 | 47.43281 | 19.27759 | 464 ft | 36 kts | 311° |
| 2026-05-08 02:04 | 47.43373 | 19.27395 | 459 ft | 46 kts | 280° |
| 2026-05-08 02:04 | 47.43446 | 19.26959 | 458 ft | 46 kts | 298° |
| 2026-05-08 02:05 | 47.43642 | 19.26644 | 458 ft | 44 kts | 314° |
| 2026-05-08 02:05 | 47.43731 | 19.26386 | 458 ft | 21 kts | 226° |
| 2026-05-08 02:05 | 47.43618 | 19.26246 | 457 ft | 22 kts | 224° |
| 2026-05-08 02:05 | 47.43492 | 19.26166 | 457 ft | 14 kts | 177° |
| 2026-05-08 02:06 | 47.43456 | 19.26171 | 457 ft | 2 kts | 187° |
| 2026-05-08 02:06 | 47.43449 | 19.26170 | 456 ft | 0 kts | 185° |